sensor_id;sensor_type;location;lat;lon;timestamp;P1;durP1;ratioP1;P2;durP2;ratioP2
38190;SDS011;25191;47.510;19.124;2023-01-29T00:08:51;474.25;;;428.52;;
38190;SDS011;25191;47.510;19.124;2023-01-29T00:18:52;441.95;;;398.42;;
38190;SDS011;25191;47.510;19.124;2023-01-29T00:28:53;434.67;;;392.17;;
38190;SDS011;25191;47.510;19.124;2023-01-29T00:38:56;462.17;;;417.42;;
38190;SDS011;25191;47.510;19.124;2023-01-29T00:48:59;449.37;;;405.57;;
38190;SDS011;25191;47.510;19.124;2023-01-29T00:58:59;452.67;;;408.55;;
38190;SDS011;25191;47.510;19.124;2023-01-29T01:09:00;452.53;;;408.37;;
38190;SDS011;25191;47.510;19.124;2023-01-29T01:19:20;500.50;;;453.05;;
38190;SDS011;25191;47.510;19.124;2023-01-29T01:29:20;504.77;;;457.05;;
38190;SDS011;25191;47.510;19.124;2023-01-29T01:39:21;527.67;;;478.15;;
38190;SDS011;25191;47.510;19.124;2023-01-29T01:49:22;516.22;;;467.60;;
38190;SDS011;25191;47.510;19.124;2023-01-29T01:59:25;567.10;;;515.10;;
38190;SDS011;25191;47.510;19.124;2023-01-29T02:09:28;598.50;;;544.40;;
38190;SDS011;25191;47.510;19.124;2023-01-29T02:19:47;576.33;;;523.67;;
38190;SDS011;25191;47.510;19.124;2023-01-29T02:30:05;594.80;;;541.17;;
38190;SDS011;25191;47.510;19.124;2023-01-29T02:40:12;528.10;;;478.98;;
38190;SDS011;25191;47.510;19.124;2023-01-29T03:00:35;475.98;;;430.15;;
38190;SDS011;25191;47.510;19.124;2023-01-29T03:11:01;477.70;;;431.92;;
38190;SDS011;25191;47.510;19.124;2023-01-29T03:21:05;401.67;;;363.23;;
38190;SDS011;25191;47.510;19.124;2023-01-29T03:31:30;409.35;;;369.83;;
38190;SDS011;25191;47.510;19.124;2023-01-29T03:41:53;416.98;;;376.65;;
38190;SDS011;25191;47.510;19.124;2023-01-29T03:52:03;417.92;;;377.42;;
38190;SDS011;25191;47.510;19.124;2023-01-29T04:02:17;420.40;;;379.63;;
38190;SDS011;25191;47.510;19.124;2023-01-29T04:12:35;442.38;;;399.40;;
38190;SDS011;25191;47.510;19.124;2023-01-29T04:22:42;413.23;;;373.40;;
38190;SDS011;25191;47.510;19.124;2023-01-29T04:53:35;413.98;;;374.10;;
38190;SDS011;25191;47.510;19.124;2023-01-29T05:03:25;397.02;;;358.95;;
38190;SDS011;25191;47.510;19.124;2023-01-29T05:13:28;417.27;;;377.00;;
38190;SDS011;25191;47.510;19.124;2023-01-29T05:23:33;394.48;;;356.52;;
38190;SDS011;25191;47.510;19.124;2023-01-29T05:33:33;416.55;;;376.30;;
38190;SDS011;25191;47.510;19.124;2023-01-29T05:43:36;388.65;;;351.45;;
38190;SDS011;25191;47.510;19.124;2023-01-29T05:53:37;427.13;;;385.67;;
38190;SDS011;25191;47.510;19.124;2023-01-29T06:03:38;403.05;;;364.25;;
38190;SDS011;25191;47.510;19.124;2023-01-29T06:13:39;418.60;;;377.75;;
38190;SDS011;25191;47.510;19.124;2023-01-29T06:23:39;443.33;;;400.05;;
38190;SDS011;25191;47.510;19.124;2023-01-29T06:33:40;406.88;;;367.45;;
38190;SDS011;25191;47.510;19.124;2023-01-29T06:43:42;417.30;;;376.55;;
38190;SDS011;25191;47.510;19.124;2023-01-29T06:53:43;438.77;;;395.88;;
38190;SDS011;25191;47.510;19.124;2023-01-29T07:03:47;461.58;;;416.70;;
38190;SDS011;25191;47.510;19.124;2023-01-29T07:13:49;463.73;;;418.40;;
38190;SDS011;25191;47.510;19.124;2023-01-29T07:33:55;427.42;;;385.00;;
38190;SDS011;25191;47.510;19.124;2023-01-29T07:43:56;446.70;;;402.50;;
38190;SDS011;25191;47.510;19.124;2023-01-29T08:04:00;453.98;;;409.02;;
38190;SDS011;25191;47.510;19.124;2023-01-29T08:14:01;504.73;;;456.20;;
38190;SDS011;25191;47.510;19.124;2023-01-29T08:24:01;497.60;;;449.50;;
38190;SDS011;25191;47.510;19.124;2023-01-29T08:34:02;471.75;;;425.42;;
38190;SDS011;25191;47.510;19.124;2023-01-29T08:44:03;493.10;;;445.35;;
38190;SDS011;25191;47.510;19.124;2023-01-29T08:54:03;502.65;;;454.13;;
38190;SDS011;25191;47.510;19.124;2023-01-29T09:04:04;531.78;;;481.30;;
38190;SDS011;25191;47.510;19.124;2023-01-29T09:14:04;509.00;;;460.20;;
38190;SDS011;25191;47.510;19.124;2023-01-29T09:24:05;537.88;;;487.23;;
38190;SDS011;25191;47.510;19.124;2023-01-29T09:34:05;548.42;;;497.02;;
38190;SDS011;25191;47.510;19.124;2023-01-29T09:44:16;1041.97;;;959.35;;
38190;SDS011;25191;47.510;19.124;2023-01-29T09:54:28;741.20;;;677.25;;
38190;SDS011;25191;47.510;19.124;2023-01-29T10:15:31;626.67;;;570.33;;
38190;SDS011;25191;47.510;19.124;2023-01-29T10:25:35;557.42;;;505.88;;
38190;SDS011;25191;47.510;19.124;2023-01-29T10:35:43;540.53;;;490.00;;
38190;SDS011;25191;47.510;19.124;2023-01-29T10:56:29;527.72;;;478.02;;
38190;SDS011;25191;47.510;19.124;2023-01-29T11:06:38;495.33;;;447.70;;
38190;SDS011;25191;47.510;19.124;2023-01-29T11:16:43;524.40;;;474.67;;
38190;SDS011;25191;47.510;19.124;2023-01-29T11:26:47;512.45;;;463.63;;
38190;SDS011;25191;47.510;19.124;2023-01-29T11:36:55;512.58;;;463.60;;
38190;SDS011;25191;47.510;19.124;2023-01-29T11:47:19;516.00;;;466.20;;
38190;SDS011;25191;47.510;19.124;2023-01-29T12:07:44;485.63;;;438.05;;
38190;SDS011;25191;47.510;19.124;2023-01-29T12:17:52;468.08;;;421.77;;
38190;SDS011;25191;47.510;19.124;2023-01-29T12:38:34;526.60;;;476.42;;
38190;SDS011;25191;47.510;19.124;2023-01-29T12:48:37;517.10;;;467.48;;
38190;SDS011;25191;47.510;19.124;2023-01-29T12:58:42;509.92;;;460.98;;
38190;SDS011;25191;47.510;19.124;2023-01-29T13:18:57;446.52;;;401.98;;
38190;SDS011;25191;47.510;19.124;2023-01-29T13:29:01;474.05;;;427.55;;
38190;SDS011;25191;47.510;19.124;2023-01-29T13:49:24;469.70;;;423.70;;
38190;SDS011;25191;47.510;19.124;2023-01-29T14:10:07;481.50;;;434.88;;
38190;SDS011;25191;47.510;19.124;2023-01-29T14:20:17;420.48;;;379.00;;
38190;SDS011;25191;47.510;19.124;2023-01-29T14:30:19;404.35;;;364.70;;
38190;SDS011;25191;47.510;19.124;2023-01-29T14:40:24;382.05;;;344.70;;
38190;SDS011;25191;47.510;19.124;2023-01-29T15:00:34;416.38;;;374.83;;
38190;SDS011;25191;47.510;19.124;2023-01-29T15:10:51;394.52;;;355.70;;
38190;SDS011;25191;47.510;19.124;2023-01-29T15:31:15;387.97;;;349.53;;
38190;SDS011;25191;47.510;19.124;2023-01-29T15:51:20;393.08;;;354.63;;
38190;SDS011;25191;47.510;19.124;2023-01-29T16:01:26;416.58;;;375.48;;
38190;SDS011;25191;47.510;19.124;2023-01-29T16:11:29;428.17;;;385.55;;
38190;SDS011;25191;47.510;19.124;2023-01-29T16:21:35;418.65;;;377.48;;
38190;SDS011;25191;47.510;19.124;2023-01-29T16:31:39;425.00;;;383.00;;
38190;SDS011;25191;47.510;19.124;2023-01-29T16:41:42;440.63;;;397.27;;
38190;SDS011;25191;47.510;19.124;2023-01-29T16:51:43;434.58;;;391.92;;
38190;SDS011;25191;47.510;19.124;2023-01-29T17:01:44;423.15;;;381.40;;
38190;SDS011;25191;47.510;19.124;2023-01-29T17:11:45;412.02;;;371.35;;
38190;SDS011;25191;47.510;19.124;2023-01-29T17:21:49;439.35;;;396.05;;
38190;SDS011;25191;47.510;19.124;2023-01-29T17:31:51;391.73;;;353.58;;
38190;SDS011;25191;47.510;19.124;2023-01-29T17:41:53;425.07;;;382.40;;
38190;SDS011;25191;47.510;19.124;2023-01-29T17:51:57;429.63;;;387.42;;
38190;SDS011;25191;47.510;19.124;2023-01-29T18:12:09;448.35;;;404.17;;
38190;SDS011;25191;47.510;19.124;2023-01-29T18:22:10;471.70;;;425.63;;
38190;SDS011;25191;47.510;19.124;2023-01-29T18:32:13;449.88;;;405.42;;
38190;SDS011;25191;47.510;19.124;2023-01-29T18:42:14;488.17;;;440.95;;
38190;SDS011;25191;47.510;19.124;2023-01-29T18:52:16;487.33;;;439.85;;
38190;SDS011;25191;47.510;19.124;2023-01-29T19:02:17;501.80;;;452.98;;
38190;SDS011;25191;47.510;19.124;2023-01-29T19:12:18;483.83;;;436.30;;
38190;SDS011;25191;47.510;19.124;2023-01-29T19:22:19;491.17;;;443.25;;
38190;SDS011;25191;47.510;19.124;2023-01-29T19:32:20;463.02;;;417.50;;
38190;SDS011;25191;47.510;19.124;2023-01-29T19:52:26;498.17;;;450.48;;
38190;SDS011;25191;47.510;19.124;2023-01-29T20:02:33;486.17;;;439.15;;
38190;SDS011;25191;47.510;19.124;2023-01-29T20:12:34;517.28;;;468.45;;
38190;SDS011;25191;47.510;19.124;2023-01-29T20:22:34;503.90;;;455.95;;
38190;SDS011;25191;47.510;19.124;2023-01-29T20:42:39;511.00;;;462.77;;
38190;SDS011;25191;47.510;19.124;2023-01-29T20:52:40;553.75;;;502.42;;
38190;SDS011;25191;47.510;19.124;2023-01-29T21:02:42;544.07;;;493.37;;
38190;SDS011;25191;47.510;19.124;2023-01-29T21:12:45;541.67;;;491.10;;
38190;SDS011;25191;47.510;19.124;2023-01-29T21:22:47;562.00;;;510.37;;
38190;SDS011;25191;47.510;19.124;2023-01-29T21:32:48;555.45;;;504.02;;
38190;SDS011;25191;47.510;19.124;2023-01-29T21:42:48;518.88;;;470.20;;
38190;SDS011;25191;47.510;19.124;2023-01-29T21:53:10;500.58;;;453.02;;
38190;SDS011;25191;47.510;19.124;2023-01-29T22:03:10;523.70;;;474.40;;
38190;SDS011;25191;47.510;19.124;2023-01-29T22:13:11;585.05;;;532.13;;
38190;SDS011;25191;47.510;19.124;2023-01-29T22:23:11;550.10;;;499.30;;
38190;SDS011;25191;47.510;19.124;2023-01-29T22:33:12;574.80;;;522.47;;
38190;SDS011;25191;47.510;19.124;2023-01-29T22:43:12;548.92;;;498.05;;
38190;SDS011;25191;47.510;19.124;2023-01-29T22:53:13;592.53;;;538.92;;
38190;SDS011;25191;47.510;19.124;2023-01-29T23:03:13;583.42;;;530.53;;
38190;SDS011;25191;47.510;19.124;2023-01-29T23:13:13;575.88;;;523.45;;
38190;SDS011;25191;47.510;19.124;2023-01-29T23:23:14;614.55;;;559.55;;
38190;SDS011;25191;47.510;19.124;2023-01-29T23:33:16;614.35;;;559.33;;
38190;SDS011;25191;47.510;19.124;2023-01-29T23:43:18;625.33;;;569.63;;
38190;SDS011;25191;47.510;19.124;2023-01-29T23:53:19;620.20;;;564.83;;
